sensor_id;sensor_type;location;lat;lon;timestamp;temperature;humidity
35381;DHT22;21486;51.916;8.378;2023-07-02T00:00:19;17.10;99.90
35381;DHT22;21486;51.916;8.378;2023-07-02T00:02:44;17.10;99.90
35381;DHT22;21486;51.916;8.378;2023-07-02T00:05:09;17.00;99.90
35381;DHT22;21486;51.916;8.378;2023-07-02T00:07:35;16.90;99.90
35381;DHT22;21486;51.916;8.378;2023-07-02T00:10:01;16.90;99.90
35381;DHT22;21486;51.916;8.378;2023-07-02T00:12:27;16.90;99.90
35381;DHT22;21486;51.916;8.378;2023-07-02T00:14:52;16.90;99.90
35381;DHT22;21486;51.916;8.378;2023-07-02T00:17:18;16.90;99.90
35381;DHT22;21486;51.916;8.378;2023-07-02T00:19:44;16.90;99.90
35381;DHT22;21486;51.916;8.378;2023-07-02T00:22:11;17.00;99.90
35381;DHT22;21486;51.916;8.378;2023-07-02T00:24:37;16.90;99.90
35381;DHT22;21486;51.916;8.378;2023-07-02T00:27:03;16.90;99.90
35381;DHT22;21486;51.916;8.378;2023-07-02T00:29:28;16.90;99.90
35381;DHT22;21486;51.916;8.378;2023-07-02T00:33:02;17.00;99.90
35381;DHT22;21486;51.916;8.378;2023-07-02T00:35:27;16.90;99.90
35381;DHT22;21486;51.916;8.378;2023-07-02T00:37:53;16.90;99.90
35381;DHT22;21486;51.916;8.378;2023-07-02T00:40:18;17.00;99.90
35381;DHT22;21486;51.916;8.378;2023-07-02T00:42:44;17.00;99.90
35381;DHT22;21486;51.916;8.378;2023-07-02T00:45:09;16.90;99.90
35381;DHT22;21486;51.916;8.378;2023-07-02T00:47:35;16.90;99.90
35381;DHT22;21486;51.916;8.378;2023-07-02T00:50:02;16.90;99.90
35381;DHT22;21486;51.916;8.378;2023-07-02T00:52:28;16.80;99.90
35381;DHT22;21486;51.916;8.378;2023-07-02T00:54:53;16.90;99.90
35381;DHT22;21486;51.916;8.378;2023-07-02T00:57:19;16.90;99.90
35381;DHT22;21486;51.916;8.378;2023-07-02T00:59:45;16.80;99.90
35381;DHT22;21486;51.916;8.378;2023-07-02T01:02:11;16.80;99.90
35381;DHT22;21486;51.916;8.378;2023-07-02T01:04:38;16.80;99.90
35381;DHT22;21486;51.916;8.378;2023-07-02T01:07:04;16.80;99.90
35381;DHT22;21486;51.916;8.378;2023-07-02T01:09:35;16.80;99.90
35381;DHT22;21486;51.916;8.378;2023-07-02T01:12:03;16.90;99.90
35381;DHT22;21486;51.916;8.378;2023-07-02T01:14:38;16.80;99.90
35381;DHT22;21486;51.916;8.378;2023-07-02T01:17:06;16.80;99.90
35381;DHT22;21486;51.916;8.378;2023-07-02T01:19:46;16.80;99.90
35381;DHT22;21486;51.916;8.378;2023-07-02T01:22:20;16.60;99.90
35381;DHT22;21486;51.916;8.378;2023-07-02T01:24:46;16.70;99.90
35381;DHT22;21486;51.916;8.378;2023-07-02T01:27:13;16.80;99.90
35381;DHT22;21486;51.916;8.378;2023-07-02T01:29:40;16.80;99.90
35381;DHT22;21486;51.916;8.378;2023-07-02T01:32:06;16.80;99.90
35381;DHT22;21486;51.916;8.378;2023-07-02T01:34:31;16.70;99.90
35381;DHT22;21486;51.916;8.378;2023-07-02T01:36:57;16.70;99.90
35381;DHT22;21486;51.916;8.378;2023-07-02T01:39:22;16.70;99.90
35381;DHT22;21486;51.916;8.378;2023-07-02T01:41:53;16.70;99.90
35381;DHT22;21486;51.916;8.378;2023-07-02T01:44:20;16.60;99.90
35381;DHT22;21486;51.916;8.378;2023-07-02T01:46:46;16.60;99.90
35381;DHT22;21486;51.916;8.378;2023-07-02T01:49:20;16.70;99.90
35381;DHT22;21486;51.916;8.378;2023-07-02T01:51:52;16.60;99.90
35381;DHT22;21486;51.916;8.378;2023-07-02T01:54:19;16.60;99.90
35381;DHT22;21486;51.916;8.378;2023-07-02T01:56:44;16.60;99.90
35381;DHT22;21486;51.916;8.378;2023-07-02T01:59:10;16.60;99.90
35381;DHT22;21486;51.916;8.378;2023-07-02T02:01:36;16.50;99.90
35381;DHT22;21486;51.916;8.378;2023-07-02T02:04:06;16.50;99.90
35381;DHT22;21486;51.916;8.378;2023-07-02T02:06:31;16.60;99.90
35381;DHT22;21486;51.916;8.378;2023-07-02T02:08:57;16.70;99.90
35381;DHT22;21486;51.916;8.378;2023-07-02T02:11:23;16.60;99.90
35381;DHT22;21486;51.916;8.378;2023-07-02T02:13:49;16.60;99.90
35381;DHT22;21486;51.916;8.378;2023-07-02T02:16:14;16.60;99.90
35381;DHT22;21486;51.916;8.378;2023-07-02T02:18:40;16.70;99.90
35381;DHT22;21486;51.916;8.378;2023-07-02T02:21:06;16.60;99.90
35381;DHT22;21486;51.916;8.378;2023-07-02T02:23:31;16.60;99.90
35381;DHT22;21486;51.916;8.378;2023-07-02T02:25:57;16.60;99.90
35381;DHT22;21486;51.916;8.378;2023-07-02T02:28:22;16.60;99.90
35381;DHT22;21486;51.916;8.378;2023-07-02T02:30:48;16.70;99.90
35381;DHT22;21486;51.916;8.378;2023-07-02T02:33:13;16.70;99.90
35381;DHT22;21486;51.916;8.378;2023-07-02T02:35:39;16.70;99.90
35381;DHT22;21486;51.916;8.378;2023-07-02T02:38:04;16.70;99.90
35381;DHT22;21486;51.916;8.378;2023-07-02T02:40:30;16.70;99.90
35381;DHT22;21486;51.916;8.378;2023-07-02T02:42:56;16.60;99.90
35381;DHT22;21486;51.916;8.378;2023-07-02T02:45:21;16.70;99.90
35381;DHT22;21486;51.916;8.378;2023-07-02T02:47:47;16.70;99.90
35381;DHT22;21486;51.916;8.378;2023-07-02T02:50:13;16.70;99.90
35381;DHT22;21486;51.916;8.378;2023-07-02T02:52:39;16.70;99.90
35381;DHT22;21486;51.916;8.378;2023-07-02T02:55:06;16.80;99.90
35381;DHT22;21486;51.916;8.378;2023-07-02T02:57:33;16.70;99.90
35381;DHT22;21486;51.916;8.378;2023-07-02T02:59:59;16.70;99.90
35381;DHT22;21486;51.916;8.378;2023-07-02T03:02:25;16.70;99.90
35381;DHT22;21486;51.916;8.378;2023-07-02T03:04:51;16.70;99.90
35381;DHT22;21486;51.916;8.378;2023-07-02T03:07:16;16.80;99.90
35381;DHT22;21486;51.916;8.378;2023-07-02T03:09:42;16.80;99.90
35381;DHT22;21486;51.916;8.378;2023-07-02T03:12:08;16.80;99.90
35381;DHT22;21486;51.916;8.378;2023-07-02T03:14:34;16.80;99.90
35381;DHT22;21486;51.916;8.378;2023-07-02T03:16:59;16.90;99.90
35381;DHT22;21486;51.916;8.378;2023-07-02T03:19:25;17.00;99.90
35381;DHT22;21486;51.916;8.378;2023-07-02T03:21:51;16.90;99.90
35381;DHT22;21486;51.916;8.378;2023-07-02T03:24:17;16.90;99.90
35381;DHT22;21486;51.916;8.378;2023-07-02T03:26:43;16.90;99.90
35381;DHT22;21486;51.916;8.378;2023-07-02T03:29:10;16.90;99.90
35381;DHT22;21486;51.916;8.378;2023-07-02T03:31:35;16.90;99.90
35381;DHT22;21486;51.916;8.378;2023-07-02T03:34:07;16.90;99.90
35381;DHT22;21486;51.916;8.378;2023-07-02T03:36:34;16.90;99.90
35381;DHT22;21486;51.916;8.378;2023-07-02T03:38:59;16.90;99.90
35381;DHT22;21486;51.916;8.378;2023-07-02T03:41:25;17.00;99.90
35381;DHT22;21486;51.916;8.378;2023-07-02T03:43:50;17.00;99.90
35381;DHT22;21486;51.916;8.378;2023-07-02T03:46:16;16.90;99.90
35381;DHT22;21486;51.916;8.378;2023-07-02T03:48:41;16.80;99.90
35381;DHT22;21486;51.916;8.378;2023-07-02T03:51:07;16.80;99.90
35381;DHT22;21486;51.916;8.378;2023-07-02T03:53:33;16.90;99.90
35381;DHT22;21486;51.916;8.378;2023-07-02T03:55:58;16.90;99.90
35381;DHT22;21486;51.916;8.378;2023-07-02T03:58:24;16.90;99.90
35381;DHT22;21486;51.916;8.378;2023-07-02T04:00:49;16.90;99.90
35381;DHT22;21486;51.916;8.378;2023-07-02T04:03:16;16.90;99.90
35381;DHT22;21486;51.916;8.378;2023-07-02T04:05:42;16.90;99.90
35381;DHT22;21486;51.916;8.378;2023-07-02T04:08:08;16.90;99.90
35381;DHT22;21486;51.916;8.378;2023-07-02T04:10:33;16.80;99.90
35381;DHT22;21486;51.916;8.378;2023-07-02T04:12:59;16.80;99.90
35381;DHT22;21486;51.916;8.378;2023-07-02T04:15:24;16.80;99.90
35381;DHT22;21486;51.916;8.378;2023-07-02T04:17:51;16.70;99.90
35381;DHT22;21486;51.916;8.378;2023-07-02T04:20:17;16.50;99.90
35381;DHT22;21486;51.916;8.378;2023-07-02T04:22:46;16.40;99.90
35381;DHT22;21486;51.916;8.378;2023-07-02T04:25:13;16.30;99.90
35381;DHT22;21486;51.916;8.378;2023-07-02T04:27:42;16.20;99.90
35381;DHT22;21486;51.916;8.378;2023-07-02T04:30:09;16.10;99.90
35381;DHT22;21486;51.916;8.378;2023-07-02T04:32:36;16.00;99.90
35381;DHT22;21486;51.916;8.378;2023-07-02T04:35:02;15.90;99.90
35381;DHT22;21486;51.916;8.378;2023-07-02T04:37:28;15.90;99.90
35381;DHT22;21486;51.916;8.378;2023-07-02T04:39:54;16.00;99.90
35381;DHT22;21486;51.916;8.378;2023-07-02T04:42:19;16.00;99.90
35381;DHT22;21486;51.916;8.378;2023-07-02T04:44:45;16.10;99.90
35381;DHT22;21486;51.916;8.378;2023-07-02T04:47:11;16.10;99.90
35381;DHT22;21486;51.916;8.378;2023-07-02T04:49:37;16.00;99.90
35381;DHT22;21486;51.916;8.378;2023-07-02T04:52:03;16.00;99.90
35381;DHT22;21486;51.916;8.378;2023-07-02T04:54:28;16.00;99.90
35381;DHT22;21486;51.916;8.378;2023-07-02T04:56:54;16.10;99.90
35381;DHT22;21486;51.916;8.378;2023-07-02T04:59:21;16.20;99.90
35381;DHT22;21486;51.916;8.378;2023-07-02T05:01:46;16.30;99.90
35381;DHT22;21486;51.916;8.378;2023-07-02T05:04:12;16.40;99.90
35381;DHT22;21486;51.916;8.378;2023-07-02T05:06:38;16.60;99.90
35381;DHT22;21486;51.916;8.378;2023-07-02T05:09:03;16.80;99.90
35381;DHT22;21486;51.916;8.378;2023-07-02T05:11:29;17.10;99.90
35381;DHT22;21486;51.916;8.378;2023-07-02T05:13:55;17.10;99.90
35381;DHT22;21486;51.916;8.378;2023-07-02T05:16:20;17.20;99.90
35381;DHT22;21486;51.916;8.378;2023-07-02T05:18:46;17.40;99.90
35381;DHT22;21486;51.916;8.378;2023-07-02T05:21:11;17.90;99.90
35381;DHT22;21486;51.916;8.378;2023-07-02T05:23:37;17.90;99.90
35381;DHT22;21486;51.916;8.378;2023-07-02T05:26:03;17.80;99.90
35381;DHT22;21486;51.916;8.378;2023-07-02T05:28:28;17.70;99.90
35381;DHT22;21486;51.916;8.378;2023-07-02T05:30:54;17.70;99.90
35381;DHT22;21486;51.916;8.378;2023-07-02T05:33:20;17.70;99.90
35381;DHT22;21486;51.916;8.378;2023-07-02T05:35:47;17.70;99.90
35381;DHT22;21486;51.916;8.378;2023-07-02T05:38:13;18.20;99.90
35381;DHT22;21486;51.916;8.378;2023-07-02T05:40:38;18.30;99.90
35381;DHT22;21486;51.916;8.378;2023-07-02T05:43:04;18.10;99.90
35381;DHT22;21486;51.916;8.378;2023-07-02T05:45:30;17.90;99.90
35381;DHT22;21486;51.916;8.378;2023-07-02T05:47:55;17.80;99.90
35381;DHT22;21486;51.916;8.378;2023-07-02T05:50:21;18.10;99.90
35381;DHT22;21486;51.916;8.378;2023-07-02T05:52:46;18.60;99.90
35381;DHT22;21486;51.916;8.378;2023-07-02T05:55:12;19.60;99.90
35381;DHT22;21486;51.916;8.378;2023-07-02T05:57:38;20.70;99.90
35381;DHT22;21486;51.916;8.378;2023-07-02T06:00:05;22.10;95.80
35381;DHT22;21486;51.916;8.378;2023-07-02T06:02:31;23.20;91.90
35381;DHT22;21486;51.916;8.378;2023-07-02T06:04:57;22.90;90.20
35381;DHT22;21486;51.916;8.378;2023-07-02T06:07:27;22.60;90.40
35381;DHT22;21486;51.916;8.378;2023-07-02T06:09:53;22.60;90.00
35381;DHT22;21486;51.916;8.378;2023-07-02T06:12:19;23.10;87.40
35381;DHT22;21486;51.916;8.378;2023-07-02T06:14:46;22.80;84.50
35381;DHT22;21486;51.916;8.378;2023-07-02T06:17:11;23.10;83.40
35381;DHT22;21486;51.916;8.378;2023-07-02T06:19:37;24.10;80.20
35381;DHT22;21486;51.916;8.378;2023-07-02T06:22:03;25.10;75.40
35381;DHT22;21486;51.916;8.378;2023-07-02T06:24:29;24.90;69.40
35381;DHT22;21486;51.916;8.378;2023-07-02T06:26:55;24.80;66.50
35381;DHT22;21486;51.916;8.378;2023-07-02T06:29:23;24.60;66.20
35381;DHT22;21486;51.916;8.378;2023-07-02T06:31:48;25.20;63.20
35381;DHT22;21486;51.916;8.378;2023-07-02T06:34:17;25.40;62.50
35381;DHT22;21486;51.916;8.378;2023-07-02T06:36:43;24.90;60.70
35381;DHT22;21486;51.916;8.378;2023-07-02T06:39:09;24.10;62.00
35381;DHT22;21486;51.916;8.378;2023-07-02T06:41:35;24.30;62.60
35381;DHT22;21486;51.916;8.378;2023-07-02T06:44:01;24.30;63.50
35381;DHT22;21486;51.916;8.378;2023-07-02T06:46:27;24.50;62.80
35381;DHT22;21486;51.916;8.378;2023-07-02T06:48:52;24.10;63.00
35381;DHT22;21486;51.916;8.378;2023-07-02T06:51:18;24.20;62.80
35381;DHT22;21486;51.916;8.378;2023-07-02T06:53:45;23.90;61.10
35381;DHT22;21486;51.916;8.378;2023-07-02T06:56:11;23.00;63.20
35381;DHT22;21486;51.916;8.378;2023-07-02T06:58:36;22.60;65.80
35381;DHT22;21486;51.916;8.378;2023-07-02T07:01:02;22.50;66.10
35381;DHT22;21486;51.916;8.378;2023-07-02T07:03:28;22.70;68.00
35381;DHT22;21486;51.916;8.378;2023-07-02T07:05:54;23.60;63.80
35381;DHT22;21486;51.916;8.378;2023-07-02T07:08:19;24.20;62.20
35381;DHT22;21486;51.916;8.378;2023-07-02T07:10:45;24.30;59.30
35381;DHT22;21486;51.916;8.378;2023-07-02T07:13:13;24.00;60.10
35381;DHT22;21486;51.916;8.378;2023-07-02T07:15:39;22.80;61.10
35381;DHT22;21486;51.916;8.378;2023-07-02T07:18:04;23.50;62.60
35381;DHT22;21486;51.916;8.378;2023-07-02T07:20:30;24.20;59.20
35381;DHT22;21486;51.916;8.378;2023-07-02T07:22:57;24.70;56.80
35381;DHT22;21486;51.916;8.378;2023-07-02T07:25:23;24.60;58.80
35381;DHT22;21486;51.916;8.378;2023-07-02T07:27:48;25.50;57.80
35381;DHT22;21486;51.916;8.378;2023-07-02T07:30:14;26.00;55.40
35381;DHT22;21486;51.916;8.378;2023-07-02T07:32:40;26.10;55.90
35381;DHT22;21486;51.916;8.378;2023-07-02T07:35:06;26.00;55.60
35381;DHT22;21486;51.916;8.378;2023-07-02T07:37:32;25.90;55.90
35381;DHT22;21486;51.916;8.378;2023-07-02T07:39:58;26.20;54.90
35381;DHT22;21486;51.916;8.378;2023-07-02T07:42:23;25.00;55.30
35381;DHT22;21486;51.916;8.378;2023-07-02T07:44:49;24.70;57.60
35381;DHT22;21486;51.916;8.378;2023-07-02T07:47:14;24.40;56.60
35381;DHT22;21486;51.916;8.378;2023-07-02T07:49:39;23.20;58.20
35381;DHT22;21486;51.916;8.378;2023-07-02T07:52:05;22.90;60.70
35381;DHT22;21486;51.916;8.378;2023-07-02T07:54:32;22.70;62.20
35381;DHT22;21486;51.916;8.378;2023-07-02T07:56:58;23.80;60.50
35381;DHT22;21486;51.916;8.378;2023-07-02T07:59:23;24.30;57.50
35381;DHT22;21486;51.916;8.378;2023-07-02T08:01:48;24.80;57.40
35381;DHT22;21486;51.916;8.378;2023-07-02T08:04:14;25.00;54.50
35381;DHT22;21486;51.916;8.378;2023-07-02T08:06:39;25.10;55.10
35381;DHT22;21486;51.916;8.378;2023-07-02T08:09:05;24.60;54.50
35381;DHT22;21486;51.916;8.378;2023-07-02T08:11:30;25.50;54.00
35381;DHT22;21486;51.916;8.378;2023-07-02T08:13:56;26.00;52.30
35381;DHT22;21486;51.916;8.378;2023-07-02T08:16:21;26.40;50.40
35381;DHT22;21486;51.916;8.378;2023-07-02T08:18:47;26.20;48.40
35381;DHT22;21486;51.916;8.378;2023-07-02T08:21:12;25.50;49.40
35381;DHT22;21486;51.916;8.378;2023-07-02T08:23:37;25.40;50.10
35381;DHT22;21486;51.916;8.378;2023-07-02T08:26:03;26.00;49.80
35381;DHT22;21486;51.916;8.378;2023-07-02T08:28:28;24.90;50.00
35381;DHT22;21486;51.916;8.378;2023-07-02T08:30:54;23.80;52.20
35381;DHT22;21486;51.916;8.378;2023-07-02T08:33:19;22.70;53.70
35381;DHT22;21486;51.916;8.378;2023-07-02T08:35:45;22.80;55.70
35381;DHT22;21486;51.916;8.378;2023-07-02T08:38:11;23.00;54.50
35381;DHT22;21486;51.916;8.378;2023-07-02T08:40:36;22.70;55.70
35381;DHT22;21486;51.916;8.378;2023-07-02T08:43:02;22.60;54.20
35381;DHT22;21486;51.916;8.378;2023-07-02T08:45:27;21.80;54.90
35381;DHT22;21486;51.916;8.378;2023-07-02T08:47:53;22.00;57.80
35381;DHT22;21486;51.916;8.378;2023-07-02T08:50:23;22.10;58.30
35381;DHT22;21486;51.916;8.378;2023-07-02T08:52:49;22.10;55.00
35381;DHT22;21486;51.916;8.378;2023-07-02T08:55:14;21.50;56.20
35381;DHT22;21486;51.916;8.378;2023-07-02T08:57:47;21.40;56.90
35381;DHT22;21486;51.916;8.378;2023-07-02T09:00:14;21.40;56.50
35381;DHT22;21486;51.916;8.378;2023-07-02T09:02:40;21.40;54.60
35381;DHT22;21486;51.916;8.378;2023-07-02T09:05:05;20.90;54.90
35381;DHT22;21486;51.916;8.378;2023-07-02T09:07:31;21.10;55.50
35381;DHT22;21486;51.916;8.378;2023-07-02T09:09:56;21.40;54.10
35381;DHT22;21486;51.916;8.378;2023-07-02T09:12:29;22.00;54.70
35381;DHT22;21486;51.916;8.378;2023-07-02T09:14:59;23.20;54.20
35381;DHT22;21486;51.916;8.378;2023-07-02T09:17:28;23.70;48.30
35381;DHT22;21486;51.916;8.378;2023-07-02T09:19:54;24.00;47.80
35381;DHT22;21486;51.916;8.378;2023-07-02T09:22:19;23.60;48.20
35381;DHT22;21486;51.916;8.378;2023-07-02T09:24:51;23.40;48.90
35381;DHT22;21486;51.916;8.378;2023-07-02T09:27:18;22.40;49.40
35381;DHT22;21486;51.916;8.378;2023-07-02T09:29:49;22.20;51.10
35381;DHT22;21486;51.916;8.378;2023-07-02T09:32:23;22.50;52.30
35381;DHT22;21486;51.916;8.378;2023-07-02T09:34:48;22.00;51.40
35381;DHT22;21486;51.916;8.378;2023-07-02T09:37:14;21.90;52.00
35381;DHT22;21486;51.916;8.378;2023-07-02T09:39:39;22.30;53.90
35381;DHT22;21486;51.916;8.378;2023-07-02T09:42:05;23.10;51.40
35381;DHT22;21486;51.916;8.378;2023-07-02T09:44:32;23.70;49.70
35381;DHT22;21486;51.916;8.378;2023-07-02T09:47:00;24.40;47.40
35381;DHT22;21486;51.916;8.378;2023-07-02T09:49:26;24.90;47.60
35381;DHT22;21486;51.916;8.378;2023-07-02T09:51:52;24.80;47.80
35381;DHT22;21486;51.916;8.378;2023-07-02T09:54:18;24.60;47.10
35381;DHT22;21486;51.916;8.378;2023-07-02T09:56:46;24.20;48.20
35381;DHT22;21486;51.916;8.378;2023-07-02T09:59:11;23.60;50.40
35381;DHT22;21486;51.916;8.378;2023-07-02T10:01:36;23.00;50.30
35381;DHT22;21486;51.916;8.378;2023-07-02T10:04:14;22.70;49.60
35381;DHT22;21486;51.916;8.378;2023-07-02T10:06:50;22.20;51.80
35381;DHT22;21486;51.916;8.378;2023-07-02T10:09:16;22.20;50.80
35381;DHT22;21486;51.916;8.378;2023-07-02T10:11:42;22.40;52.40
35381;DHT22;21486;51.916;8.378;2023-07-02T10:14:07;22.40;51.00
35381;DHT22;21486;51.916;8.378;2023-07-02T10:16:33;23.10;49.60
35381;DHT22;21486;51.916;8.378;2023-07-02T10:19:11;24.20;48.90
35381;DHT22;21486;51.916;8.378;2023-07-02T10:21:37;24.70;47.10
35381;DHT22;21486;51.916;8.378;2023-07-02T10:24:13;24.40;46.30
35381;DHT22;21486;51.916;8.378;2023-07-02T10:26:50;23.60;48.90
35381;DHT22;21486;51.916;8.378;2023-07-02T10:29:18;23.70;49.40
35381;DHT22;21486;51.916;8.378;2023-07-02T10:31:54;24.50;46.80
35381;DHT22;21486;51.916;8.378;2023-07-02T10:34:30;25.70;49.30
35381;DHT22;21486;51.916;8.378;2023-07-02T10:36:56;26.70;45.40
35381;DHT22;21486;51.916;8.378;2023-07-02T10:39:22;25.50;44.80
35381;DHT22;21486;51.916;8.378;2023-07-02T10:41:47;25.10;43.60
35381;DHT22;21486;51.916;8.378;2023-07-02T10:44:14;24.80;44.40
35381;DHT22;21486;51.916;8.378;2023-07-02T10:46:46;24.20;46.40
35381;DHT22;21486;51.916;8.378;2023-07-02T10:49:12;23.10;48.60
35381;DHT22;21486;51.916;8.378;2023-07-02T10:51:38;23.50;48.10
35381;DHT22;21486;51.916;8.378;2023-07-02T10:54:04;23.80;48.70
35381;DHT22;21486;51.916;8.378;2023-07-02T10:56:30;24.10;48.30
35381;DHT22;21486;51.916;8.378;2023-07-02T10:58:56;24.00;49.30
35381;DHT22;21486;51.916;8.378;2023-07-02T11:01:29;24.20;50.10
35381;DHT22;21486;51.916;8.378;2023-07-02T11:04:01;23.80;49.30
35381;DHT22;21486;51.916;8.378;2023-07-02T11:06:27;23.50;50.20
35381;DHT22;21486;51.916;8.378;2023-07-02T11:08:53;23.70;50.60
35381;DHT22;21486;51.916;8.378;2023-07-02T11:11:20;23.30;50.00
35381;DHT22;21486;51.916;8.378;2023-07-02T11:13:46;23.70;50.00
35381;DHT22;21486;51.916;8.378;2023-07-02T11:16:23;23.90;49.00
35381;DHT22;21486;51.916;8.378;2023-07-02T11:18:54;24.10;49.80
35381;DHT22;21486;51.916;8.378;2023-07-02T11:21:20;24.60;49.10
35381;DHT22;21486;51.916;8.378;2023-07-02T11:23:46;24.50;50.30
35381;DHT22;21486;51.916;8.378;2023-07-02T11:26:11;24.10;52.20
35381;DHT22;21486;51.916;8.378;2023-07-02T11:28:46;23.80;51.20
35381;DHT22;21486;51.916;8.378;2023-07-02T11:31:12;23.40;51.40
35381;DHT22;21486;51.916;8.378;2023-07-02T11:33:38;23.20;51.00
35381;DHT22;21486;51.916;8.378;2023-07-02T11:36:04;23.30;51.80
35381;DHT22;21486;51.916;8.378;2023-07-02T11:38:30;23.30;51.40
35381;DHT22;21486;51.916;8.378;2023-07-02T11:40:55;23.60;51.80
35381;DHT22;21486;51.916;8.378;2023-07-02T11:43:21;24.60;50.40
35381;DHT22;21486;51.916;8.378;2023-07-02T11:45:46;25.70;50.30
35381;DHT22;21486;51.916;8.378;2023-07-02T11:48:12;25.40;47.10
35381;DHT22;21486;51.916;8.378;2023-07-02T11:50:38;25.00;47.00
35381;DHT22;21486;51.916;8.378;2023-07-02T11:53:03;24.50;48.80
35381;DHT22;21486;51.916;8.378;2023-07-02T11:55:29;23.80;48.40
35381;DHT22;21486;51.916;8.378;2023-07-02T11:57:54;23.40;48.70
35381;DHT22;21486;51.916;8.378;2023-07-02T12:00:20;23.50;50.50
35381;DHT22;21486;51.916;8.378;2023-07-02T12:02:45;23.60;49.90
35381;DHT22;21486;51.916;8.378;2023-07-02T12:05:11;24.00;50.90
35381;DHT22;21486;51.916;8.378;2023-07-02T12:07:36;24.00;48.80
35381;DHT22;21486;51.916;8.378;2023-07-02T12:10:01;23.70;50.70
35381;DHT22;21486;51.916;8.378;2023-07-02T12:12:27;23.20;51.20
35381;DHT22;21486;51.916;8.378;2023-07-02T12:14:52;23.10;52.20
35381;DHT22;21486;51.916;8.378;2023-07-02T12:17:18;23.10;52.70
35381;DHT22;21486;51.916;8.378;2023-07-02T12:19:43;23.30;53.60
35381;DHT22;21486;51.916;8.378;2023-07-02T12:22:09;23.40;50.90
35381;DHT22;21486;51.916;8.378;2023-07-02T12:24:34;23.80;49.10
35381;DHT22;21486;51.916;8.378;2023-07-02T12:27:00;24.30;47.60
35381;DHT22;21486;51.916;8.378;2023-07-02T12:29:25;24.30;48.50
35381;DHT22;21486;51.916;8.378;2023-07-02T12:31:51;24.10;48.50
35381;DHT22;21486;51.916;8.378;2023-07-02T12:34:16;23.90;50.30
35381;DHT22;21486;51.916;8.378;2023-07-02T12:36:42;23.50;48.30
35381;DHT22;21486;51.916;8.378;2023-07-02T12:39:07;23.20;48.70
35381;DHT22;21486;51.916;8.378;2023-07-02T12:41:33;22.80;50.90
35381;DHT22;21486;51.916;8.378;2023-07-02T12:43:58;22.40;48.80
35381;DHT22;21486;51.916;8.378;2023-07-02T12:46:24;22.40;50.10
35381;DHT22;21486;51.916;8.378;2023-07-02T12:48:49;22.70;50.70
35381;DHT22;21486;51.916;8.378;2023-07-02T12:51:15;22.70;49.70
35381;DHT22;21486;51.916;8.378;2023-07-02T12:53:40;22.70;50.30
35381;DHT22;21486;51.916;8.378;2023-07-02T12:56:06;22.90;50.40
35381;DHT22;21486;51.916;8.378;2023-07-02T12:58:31;23.00;49.30
35381;DHT22;21486;51.916;8.378;2023-07-02T13:00:57;23.10;49.40
35381;DHT22;21486;51.916;8.378;2023-07-02T13:03:22;22.70;48.50
35381;DHT22;21486;51.916;8.378;2023-07-02T13:05:50;22.70;49.00
35381;DHT22;21486;51.916;8.378;2023-07-02T13:08:15;22.70;48.50
35381;DHT22;21486;51.916;8.378;2023-07-02T13:10:41;22.90;48.20
35381;DHT22;21486;51.916;8.378;2023-07-02T13:13:06;22.80;48.70
35381;DHT22;21486;51.916;8.378;2023-07-02T13:15:32;23.00;48.30
35381;DHT22;21486;51.916;8.378;2023-07-02T13:17:57;22.80;47.30
35381;DHT22;21486;51.916;8.378;2023-07-02T13:20:23;22.80;48.60
35381;DHT22;21486;51.916;8.378;2023-07-02T13:22:48;22.90;49.60
35381;DHT22;21486;51.916;8.378;2023-07-02T13:25:14;23.00;51.40
35381;DHT22;21486;51.916;8.378;2023-07-02T13:27:39;23.00;51.00
35381;DHT22;21486;51.916;8.378;2023-07-02T13:30:05;23.10;50.20
35381;DHT22;21486;51.916;8.378;2023-07-02T13:32:30;23.10;50.50
35381;DHT22;21486;51.916;8.378;2023-07-02T13:34:56;23.40;50.20
35381;DHT22;21486;51.916;8.378;2023-07-02T13:37:21;23.50;50.80
35381;DHT22;21486;51.916;8.378;2023-07-02T13:39:47;23.40;50.60
35381;DHT22;21486;51.916;8.378;2023-07-02T13:42:13;22.90;47.90
35381;DHT22;21486;51.916;8.378;2023-07-02T13:44:39;22.60;48.50
35381;DHT22;21486;51.916;8.378;2023-07-02T13:47:04;22.50;50.10
35381;DHT22;21486;51.916;8.378;2023-07-02T13:49:30;22.60;50.90
35381;DHT22;21486;51.916;8.378;2023-07-02T13:51:55;22.60;49.50
35381;DHT22;21486;51.916;8.378;2023-07-02T13:54:21;23.00;50.40
35381;DHT22;21486;51.916;8.378;2023-07-02T13:56:47;23.10;50.40
35381;DHT22;21486;51.916;8.378;2023-07-02T13:59:12;23.10;48.80
35381;DHT22;21486;51.916;8.378;2023-07-02T14:01:38;22.80;49.40
35381;DHT22;21486;51.916;8.378;2023-07-02T14:04:04;22.50;51.00
35381;DHT22;21486;51.916;8.378;2023-07-02T14:06:29;22.30;50.30
35381;DHT22;21486;51.916;8.378;2023-07-02T14:08:55;22.40;52.10
35381;DHT22;21486;51.916;8.378;2023-07-02T14:11:21;22.70;51.30
35381;DHT22;21486;51.916;8.378;2023-07-02T14:13:47;22.90;51.90
35381;DHT22;21486;51.916;8.378;2023-07-02T14:16:13;22.80;52.30
35381;DHT22;21486;51.916;8.378;2023-07-02T14:18:38;22.60;53.00
35381;DHT22;21486;51.916;8.378;2023-07-02T14:21:04;22.70;51.80
35381;DHT22;21486;51.916;8.378;2023-07-02T14:23:29;22.90;52.10
35381;DHT22;21486;51.916;8.378;2023-07-02T14:25:55;22.70;51.30
35381;DHT22;21486;51.916;8.378;2023-07-02T14:28:20;22.80;52.80
35381;DHT22;21486;51.916;8.378;2023-07-02T14:30:45;22.60;51.50
35381;DHT22;21486;51.916;8.378;2023-07-02T14:33:12;22.80;52.40
35381;DHT22;21486;51.916;8.378;2023-07-02T14:35:37;23.10;52.10
35381;DHT22;21486;51.916;8.378;2023-07-02T14:38:03;23.10;53.00
35381;DHT22;21486;51.916;8.378;2023-07-02T14:40:28;23.00;52.50
35381;DHT22;21486;51.916;8.378;2023-07-02T14:42:53;22.70;53.00
35381;DHT22;21486;51.916;8.378;2023-07-02T14:45:19;22.40;52.80
35381;DHT22;21486;51.916;8.378;2023-07-02T14:47:44;22.30;55.50
35381;DHT22;21486;51.916;8.378;2023-07-02T14:50:10;22.50;53.20
35381;DHT22;21486;51.916;8.378;2023-07-02T14:52:36;22.70;52.80
35381;DHT22;21486;51.916;8.378;2023-07-02T14:55:01;22.70;53.10
35381;DHT22;21486;51.916;8.378;2023-07-02T14:57:29;22.40;52.00
35381;DHT22;21486;51.916;8.378;2023-07-02T14:59:55;22.40;55.60
35381;DHT22;21486;51.916;8.378;2023-07-02T15:02:21;22.40;53.30
35381;DHT22;21486;51.916;8.378;2023-07-02T15:04:47;22.50;52.20
35381;DHT22;21486;51.916;8.378;2023-07-02T15:07:12;22.60;52.70
35381;DHT22;21486;51.916;8.378;2023-07-02T15:09:37;22.50;53.10
35381;DHT22;21486;51.916;8.378;2023-07-02T15:12:03;22.70;52.70
35381;DHT22;21486;51.916;8.378;2023-07-02T15:14:28;22.90;53.80
35381;DHT22;21486;51.916;8.378;2023-07-02T15:16:54;23.00;53.20
35381;DHT22;21486;51.916;8.378;2023-07-02T15:19:20;22.80;52.20
35381;DHT22;21486;51.916;8.378;2023-07-02T15:21:45;22.80;52.90
35381;DHT22;21486;51.916;8.378;2023-07-02T15:24:11;22.70;54.00